Bowie - southern half: Past 24 Hour Conditions

 

South Hecate Strait - 46185

07:00 PM PST 10 February 2016Buoy position: 52.43N 129.79W
Disclaimer

This table is a summary of hourly weather conditions for the past 24 hours.
Please note that these observations might not always be representative of weather conditions over their associated marine area.

Date / Time
(PST)
Wind(knots) Wave height(m) Wave period(s) Pressure(kPa) Air tempC) Water tempC)
10 February 2016
19:00 S 16 gust 19 2.8 10.0 101.7 9 9
18:00 S 16 gust 21 3.0 8.0 101.6 10 9
17:00 S 16 gust 19 3.3 10.0 101.5 10 9
16:00 S 16 gust 19 3.4 8.0 101.4 10 9
15:00 SSW 19 N/A N/A 101.2 10 N/A
14:00 SSW 19 3.6 8.0 101.0 10 9
13:00 S 29 gust 37 3.3 8.0 100.8 10 9
12:00 SSE 25 gust 31 3.0 8.0 100.8 10 9
11:00 SE 19 gust 23 2.8 7.0 100.9 10 9
10:00 SE 18 gust 21 2.5 8.0 100.9 10 9
9:00 SE 19 gust 23 2.5 7.0 100.9 10 9
8:00 ESE 16 gust 19 2.4 7.0 100.9 9 9
7:00 SE 16 gust 19 2.5 8.0 101.0 10 9
6:00 SSE 19 gust 27 2.4 8.0 101.0 10 9
5:00 SSE 16 gust 19 2.4 8.0 101.1 9 9
4:00 SSE 19 gust 23 2.7 8.0 101.2 9 9
3:00 SSE 19 gust 25 2.7 8.0 101.2 9 9
2:00 SSE 18 gust 21 2.9 8.0 101.3 9 9
1:00 S 16 gust 19 3.6 8.0 101.3 10 9
0:00 S 21 gust 27 3.7 8.0 101.2 10 9
09 February 2016
23:00 S 23 gust 29 3.7 8.0 101.1 10 9
22:00 S 27 gust 35 4.2 9.0 101.0 10 9
21:00 S 29 gust 35 3.6 8.0 101.0 10 9
20:00 S 23 gust 31 3.4 8.0 101.0 10 9
19:00 S 25 gust 31 3.2 8.0 101.0 10 9

Zoom-in to make a selection

Map of Pacific - South Coast marine weather areas Tsawwassen Ferry Terminal South Nomad - 46036 Sentry Shoal - 46131 South Brooks - 46132 Halibut Bank - 46146 South Moresby - 46147 South Hecate Strait - 46185 West Sea Otter - 46204 La Perouse Bank - 46206 East Dellwood - 46207 Discovery Island Esquimalt Harbour Kelp Reefs Malahat Race Rocks Lightstation Saturna Island Sheringham Point University of Victoria Victoria Gonzales Victoria Int'l Airport Ballenas Islands Campbell River Airport Comox Airport Entrance Island Fanny Island Nanaimo Airport Port Hardy Airport Sisters Islets Estevan Point Sartine Island Solander Island Tofino Airport Grief Point Powell River Airport Sechelt Cape St.James Bella Bella Airport Bella Coola Airport Cathedral Point Herbert Island Point Atkinson Sand Heads Lightstation Vancouver Harbour Vancouver Int'l Airport West Vancouver Port Alberni Howe Sound - Pam Rocks Squamish Airport
Legend:
buoy Buoy
land station Land Station

Pacific - South Coast Area

Another Region

What we are doing

Date modified: